Time;durP1;ratioP1;P1;durP2;ratioP2;P2;SDS_P1;SDS_P2;PMS_P1;PMS_P2;Temp;Humidity;BMP_temperature;BMP_pressure;BME280_temperature;BME280_humidity;BME280_pressure;Samples;Min_cycle;Max_cycle;Signal;HPM_P1;HPM_P2
2021/03/04 00:01:45;;;;;;;40.03;19.70;;;;;;;5.61;81.71;99586.47;5072886;28;20028;-70
2021/03/04 00:04:10;;;;;;;34.20;18.75;;;;;;;5.66;81.59;99577.13;5073421;28;20406;-69
2021/03/04 00:06:36;;;;;;;39.60;19.70;;;;;;;5.54;82.09;99582.06;5073227;28;20036;-70
2021/03/04 00:09:01;;;;;;;35.75;20.10;;;;;;;5.55;82.07;99576.09;5073199;28;20100;-69
2021/03/04 00:11:27;;;;;;;41.40;20.17;;;;;;;5.54;82.32;99582.06;5072962;28;20108;-69
2021/03/04 00:13:52;;;;;;;37.65;20.13;;;;;;;5.57;82.26;99579.56;5070495;28;20518;-69
2021/03/04 00:16:17;;;;;;;46.33;19.75;;;;;;;5.63;81.91;99571.94;5064634;28;20715;-69
2021/03/04 00:18:42;;;;;;;41.78;19.58;;;;;;;5.61;82.08;99568.47;5072889;28;20141;-69
2021/03/04 00:21:08;;;;;;;35.63;18.88;;;;;;;5.59;81.99;99565.00;5072695;28;20111;-69
2021/03/04 00:23:33;;;;;;;39.25;19.38;;;;;;;5.58;81.88;99553.00;5072825;28;20103;-68
2021/03/04 00:25:58;;;;;;;38.80;18.98;;;;;;;5.62;81.85;99549.63;5072773;28;20491;-70
2021/03/04 00:28:24;;;;;;;38.25;18.40;;;;;;;5.61;81.92;99553.06;5072718;28;20032;-70
2021/03/04 00:30:49;;;;;;;37.25;19.55;;;;;;;5.58;81.98;99550.44;5072399;28;20025;-67
2021/03/04 00:33:14;;;;;;;41.63;18.52;;;;;;;5.64;81.68;99547.94;5072604;28;20039;-67
2021/03/04 00:35:40;;;;;;;33.35;18.77;;;;;;;5.59;81.88;99545.31;5072731;28;20036;-67
2021/03/04 00:38:05;;;;;;;36.33;19.17;;;;;;;5.63;81.69;99546.22;5072514;28;20031;-67
2021/03/04 00:40:31;;;;;;;32.80;17.88;;;;;;;5.59;81.96;99544.44;5072325;28;20568;-67
2021/03/04 00:42:56;;;;;;;38.15;19.23;;;;;;;5.51;82.26;99543.47;5072375;28;20104;-67
2021/03/04 00:45:24;;;;;;;43.92;19.35;;;;;;;5.50;82.55;99536.59;5066256;28;20020;-67
2021/03/04 00:47:49;;;;;;;38.88;17.98;;;;;;;5.45;82.58;99540.81;5068705;28;20424;-67
2021/03/04 00:50:17;;;;;;;37.70;19.45;;;;;;;5.46;82.69;99538.25;5072266;28;20115;-68
2021/03/04 00:52:42;;;;;;;39.53;19.17;;;;;;;5.46;82.68;99539.97;5072153;28;20039;-68
2021/03/04 00:55:08;;;;;;;40.08;19.42;;;;;;;5.45;82.94;99545.94;5072337;28;20032;-68
2021/03/04 00:57:34;;;;;;;32.13;18.75;;;;;;;5.50;82.51;99549.44;5072359;28;20024;-67
2021/03/04 00:59:59;;;;;;;38.08;18.38;;;;;;;5.55;82.62;99542.66;5071971;28;20032;-67
2021/03/04 05:15:50;;;;;;;36.15;17.02;;;;;;;3.81;88.54;99336.22;5869760;22;20530;-71
2021/03/04 05:18:15;;;;;;;30.45;17.30;;;;;;;3.74;88.70;99331.84;5092144;28;20024;-71
2021/03/04 05:20:41;;;;;;;33.95;17.38;;;;;;;3.71;89.05;99334.34;5092043;28;20034;-71
2021/03/04 05:23:06;;;;;;;32.35;17.98;;;;;;;3.75;89.05;99325.88;5092230;28;20099;-71
2021/03/04 05:25:31;;;;;;;32.50;17.85;;;;;;;3.72;88.98;99330.94;5088842;28;20100;-71
2021/03/04 05:27:56;;;;;;;39.35;18.85;;;;;;;3.66;89.17;99335.09;5071936;28;20361;-71
2021/03/04 05:30:22;;;;;;;39.60;18.63;;;;;;;3.66;89.13;99323.16;5072360;28;20131;-63
2021/03/04 05:32:47;;;;;;;38.92;17.67;;;;;;;3.64;89.08;99326.53;5071751;28;20498;-63
2021/03/04 05:35:13;;;;;;;30.73;17.52;;;;;;;3.71;88.94;99318.97;5071956;28;20031;-63
2021/03/04 05:37:38;;;;;;;34.20;17.08;;;;;;;3.64;89.08;99317.13;5071928;28;20021;-63
2021/03/04 05:40:05;;;;;;;34.10;17.63;;;;;;;3.58;89.23;99317.91;4995320;28;20053;-63
2021/03/04 05:42:31;;;;;;;34.42;18.23;;;;;;;3.59;89.38;99311.06;5011899;28;20030;-63
2021/03/04 05:44:57;;;;;;;37.58;17.45;;;;;;;3.61;89.09;99317.06;5009359;28;20033;-63
2021/03/04 05:47:23;;;;;;;39.95;17.45;;;;;;;3.61;89.12;99317.94;5004692;28;20053;-64
2021/03/04 05:49:59;;;;;;;41.88;20.08;;;;;;;3.59;89.31;99317.06;5012080;28;20072;-64
2021/03/04 05:52:25;;;;;;;37.22;19.08;;;;;;;3.62;89.18;99313.66;5011914;28;20038;-64
2021/03/04 05:54:52;;;;;;;38.85;18.05;;;;;;;3.60;89.52;99305.09;5012032;28;20037;-64
2021/03/04 05:57:18;;;;;;;40.63;19.30;;;;;;;3.62;89.41;99311.09;5011792;28;20038;-64
2021/03/04 05:59:43;;;;;;;36.60;19.63;;;;;;;3.64;89.33;99304.31;5012028;28;20029;-64
2021/03/04 06:02:09;;;;;;;33.80;19.05;;;;;;;3.68;89.34;99303.56;5011561;28;20030;-64
2021/03/04 06:04:35;;;;;;;39.33;18.65;;;;;;;3.68;89.17;99303.56;5012075;28;20033;-64
2021/03/04 06:07:00;;;;;;;39.97;19.85;;;;;;;3.72;88.82;99295.06;5011777;28;20022;-64
2021/03/04 06:09:29;;;;;;;38.63;19.23;;;;;;;3.74;88.88;99307.91;5011824;28;20030;-64
2021/03/04 06:12:05;;;;;;;41.85;19.00;;;;;;;3.75;88.73;99305.38;5013950;28;20028;-64
2021/03/04 06:14:33;;;;;;;38.38;19.67;;;;;;;3.77;88.84;99308.84;5013572;28;20034;-64
2021/03/04 06:17:30;;;;;;;37.95;18.88;;;;;;;3.79;88.59;99298.63;5007128;28;20117;-64
2021/03/04 06:20:00;;;;;;;41.35;20.10;;;;;;;3.74;88.81;99302.78;4992890;28;20041;-64
2021/03/04 06:22:33;;;;;;;;;;;;;;;3.70;88.75;99299.31;5015726;28;20647;-64
2021/03/04 06:25:00;;;;;;;42.05;20.13;;;;;;;3.74;88.81;99302.78;5015427;28;19909;-64
2021/03/04 06:27:28;;;;;;;45.58;20.73;;;;;;;3.82;88.61;99296.97;5015574;28;20032;-64
2021/03/04 06:29:54;;;;;;;41.95;21.25;;;;;;;3.89;88.32;99297.06;5015231;28;20562;-64
2021/03/04 06:32:23;;;;;;;40.38;20.75;;;;;;;3.94;87.96;99293.75;5015120;28;20145;-64
2021/03/04 06:35:08;;;;;;;41.47;20.25;;;;;;;3.88;87.79;99296.22;5015182;28;20024;-64
2021/03/04 06:37:36;;;;;;;36.72;18.08;;;;;;;3.97;87.70;99290.38;5015246;28;20029;-64
2021/03/04 06:40:04;;;;;;;45.72;18.63;;;;;;;3.95;87.58;99302.28;5015300;28;20108;-64
2021/03/04 06:42:39;;;;;;;38.70;18.90;;;;;;;3.97;87.53;99295.50;5014864;28;20053;-64
2021/03/04 06:45:04;;;;;;;44.67;19.45;;;;;;;3.95;87.69;99292.91;5011242;28;20390;-64
2021/03/04 06:47:30;;;;;;;43.58;20.10;;;;;;;3.89;87.72;99286.81;5008587;28;20026;-64
2021/03/04 06:49:56;;;;;;;33.42;18.63;;;;;;;3.98;87.38;99297.22;5014956;28;20103;-64
2021/03/04 06:52:30;;;;;;;31.17;17.45;;;;;;;4.02;87.32;99299.00;5014681;28;20107;-64
2021/03/04 06:55:11;;;;;;;39.47;18.42;;;;;;;4.04;87.38;99289.63;5012691;28;20053;-64
2021/03/04 06:57:37;;;;;;;37.72;18.95;;;;;;;4.07;87.45;99287.13;4994409;28;20092;-64
2021/03/04 07:00:22;;;;;;;36.85;19.55;;;;;;;3.93;87.49;99303.97;5006324;28;20467;-64
2021/03/04 07:02:52;;;;;;;41.85;18.67;;;;;;;4.03;87.34;99296.47;5009701;28;20123;-64
2021/03/04 07:05:17;;;;;;;37.65;18.88;;;;;;;4.13;86.99;99298.34;5007140;28;20025;-69
2021/03/04 07:07:48;;;;;;;31.83;17.00;;;;;;;4.19;86.52;99297.56;5006435;28;20018;-69
2021/03/04 07:10:13;;;;;;;36.28;18.55;;;;;;;4.22;86.48;99296.75;5010217;28;20018;-69
2021/03/04 07:12:42;;;;;;;41.08;19.15;;;;;;;4.24;86.12;99301.06;5000880;28;20026;-69
2021/03/04 07:15:08;;;;;;;36.83;19.17;;;;;;;4.26;86.11;99294.28;5003461;28;20026;-69
2021/03/04 07:17:35;;;;;;;40.22;18.85;;;;;;;4.42;85.74;99297.06;5013005;28;20449;-69
2021/03/04 07:20:02;;;;;;;38.33;18.42;;;;;;;4.32;86.00;99289.22;4997896;28;20019;-69
2021/03/04 07:22:30;;;;;;;30.75;17.15;;;;;;;4.36;85.65;99291.00;5007401;28;20030;-69
2021/03/04 07:24:56;;;;;;;33.53;18.33;;;;;;;4.50;85.51;99290.34;5004526;28;20109;-69
2021/03/04 07:27:22;;;;;;;40.10;18.35;;;;;;;4.71;84.69;99298.34;4999991;28;20149;-69
2021/03/04 07:29:47;;;;;;;37.40;18.85;;;;;;;4.73;84.23;99294.09;5010497;28;20026;-69
2021/03/04 07:32:14;;;;;;;43.38;18.95;;;;;;;4.71;83.78;99288.06;4998526;28;20553;-69
2021/03/04 07:34:41;;;;;;;37.38;18.65;;;;;;;4.87;83.69;99284.84;5006111;28;20164;-69
2021/03/04 07:37:08;;;;;;;37.10;19.15;;;;;;;5.08;83.22;99278.28;5005995;28;20034;-69
2021/03/04 07:39:36;;;;;;;36.50;17.70;;;;;;;5.15;82.38;99280.94;4998145;28;20022;-69
2021/03/04 07:42:02;;;;;;;34.67;18.73;;;;;;;5.18;82.07;99274.97;5010200;28;20029;-69
2021/03/04 07:44:32;;;;;;;38.38;18.48;;;;;;;5.32;81.22;99272.56;4995395;28;20030;-69
2021/03/04 07:47:00;;;;;;;34.10;18.30;;;;;;;5.49;80.91;99275.31;5009774;28;20022;-69
2021/03/04 07:49:36;;;;;;;37.90;18.25;;;;;;;5.82;79.03;99275.63;4999310;28;20375;-69
2021/03/04 07:52:17;;;;;;;31.92;17.98;;;;;;;5.89;79.05;99271.41;5003217;28;20412;-69
2021/03/04 07:54:47;;;;;;;32.72;18.00;;;;;;;6.40;78.21;99270.97;5006735;28;20026;-69
2021/03/04 07:57:15;;;;;;;34.63;18.02;;;;;;;6.70;76.67;99259.13;5003821;28;20710;-69
2021/03/04 08:00:02;;;;;;;33.10;17.33;;;;;;;6.96;74.88;99251.53;5005656;28;20050;-69
2021/03/04 08:02:29;;;;;;;33.38;17.65;;;;;;;6.90;74.99;99247.22;4986178;28;20112;-69
2021/03/04 08:05:10;;;;;;;29.58;17.23;;;;;;;6.99;75.11;99255.84;5003797;28;20026;-69
2021/03/04 08:07:36;;;;;;;34.78;17.85;;;;;;;7.06;75.40;99253.31;5009165;28;20425;-69
2021/03/04 08:10:12;;;;;;;30.17;15.90;;;;;;;7.51;73.17;99251.72;4997355;28;20041;-69
2021/03/04 08:12:49;;;;;;;34.95;17.08;;;;;;;7.42;72.90;99239.66;4981645;28;20080;-69
2021/03/04 08:15:16;;;;;;;36.42;17.05;;;;;;;7.70;71.39;99243.13;4990282;28;20022;-68
2021/03/04 08:17:42;;;;;;;27.50;15.68;;;;;;;8.03;70.61;99240.59;4988985;28;20026;-69
2021/03/04 08:20:18;;;;;;;27.40;16.08;;;;;;;9.02;66.75;99238.63;4985512;28;20010;-69
2021/03/04 08:22:51;;;;;;;33.78;15.57;;;;;;;9.51;64.92;99228.03;4985101;28;20025;-69
2021/03/04 08:25:23;;;;;;;30.00;15.35;;;;;;;9.71;64.17;99229.63;4985920;28;20064;-69
2021/03/04 08:27:50;;;;;;;26.90;15.43;;;;;;;10.38;62.54;99220.44;4976819;28;20564;-69
2021/03/04 08:30:26;;;;;;;31.13;15.48;;;;;;;11.11;60.24;99205.78;4983468;28;20101;-69
2021/03/04 08:32:56;;;;;;;31.60;15.20;;;;;;;12.29;57.01;99215.22;4986423;28;20047;-70
2021/03/04 08:35:22;;;;;;;34.83;14.63;;;;;;;12.83;55.35;99210.72;4979153;28;20026;-69
2021/03/04 08:38:04;;;;;;;32.92;13.98;;;;;;;14.36;51.12;99204.59;4989297;28;20045;-69
2021/03/04 08:40:51;;;;;;;23.00;14.25;;;;;;;16.58;45.15;99197.72;4980279;28;20053;-69
2021/03/04 08:43:23;;;;;;;24.42;14.10;;;;;;;18.15;41.70;99198.66;4980713;28;20130;-70
2021/03/04 08:46:00;;;;;;;23.65;12.77;;;;;;;19.27;38.22;99196.34;4981397;28;20022;-69
2021/03/04 08:48:26;;;;;;;22.88;12.82;;;;;;;19.25;38.53;99193.81;4978926;28;20090;-70
2021/03/04 08:51:00;;;;;;;26.55;13.60;;;;;;;19.64;37.20;99194.66;4983467;28;20068;-70
2021/03/04 08:53:28;;;;;;;23.63;14.10;;;;;;;18.24;39.15;99193.03;4987419;28;20414;-70
2021/03/04 08:55:56;;;;;;;24.05;13.70;;;;;;;19.48;36.69;99190.06;4976726;28;20081;-69
2021/03/04 08:58:23;;;;;;;22.23;12.63;;;;;;;17.90;39.19;99182.25;5002567;28;20445;-70
2021/03/04 09:01:00;;;;;;;28.65;13.95;;;;;;;18.70;38.56;99169.22;4981579;28;20032;-70
2021/03/04 09:03:28;;;;;;;17.63;12.52;;;;;;;19.04;37.75;99173.78;4978815;28;20027;-70
2021/03/04 09:06:12;;;;;;;21.77;13.10;;;;;;;19.14;37.13;99174.19;4988966;28;20034;-70
2021/03/04 09:08:39;;;;;;;24.90;13.63;;;;;;;18.97;37.52;99165.34;4980501;28;20030;-70
2021/03/04 09:11:07;;;;;;;21.95;13.82;;;;;;;19.25;36.62;99164.91;4995634;28;20130;-70
2021/03/04 09:13:33;;;;;;;19.98;12.55;;;;;;;19.05;37.25;99156.25;4987948;28;20026;-70
2021/03/04 09:16:06;;;;;;;24.75;13.38;;;;;;;18.39;38.26;99156.56;4982283;28;20030;-70
2021/03/04 09:18:45;;;;;;;22.05;12.35;;;;;;;20.08;34.60;99147.75;4985988;28;20050;-70
2021/03/04 09:21:14;;;;;;;30.20;13.63;;;;;;;21.10;32.93;99144.09;4984793;28;20093;-69
2021/03/04 09:23:40;;;;;;;18.30;11.02;;;;;;;22.45;31.20;99133.72;4975788;28;20077;-70
2021/03/04 09:26:07;;;;;;;30.23;12.20;;;;;;;22.44;29.76;99127.59;4989028;28;20483;-70
2021/03/04 09:28:33;;;;;;;21.42;11.68;;;;;;;22.41;30.90;99129.56;4979741;28;20396;-70
2021/03/04 09:31:28;;;;;;;24.20;11.27;;;;;;;21.55;30.43;99139.84;4981967;28;20232;-70
2021/03/04 09:33:58;;;;;;;20.85;10.68;;;;;;;19.83;33.94;99134.97;4975777;28;20483;-69
2021/03/04 09:36:24;;;;;;;23.33;10.55;;;;;;;20.71;31.89;99120.78;4977965;28;20598;-70
2021/03/04 09:38:54;;;;;;;20.42;10.27;;;;;;;23.18;26.65;99115.06;4984735;28;20105;-70
2021/03/04 09:41:21;;;;;;;18.67;9.82;;;;;;;20.65;29.44;99127.25;4971413;28;20030;-70
2021/03/04 09:43:49;;;;;;;22.92;9.25;;;;;;;23.12;26.33;99111.03;4986669;28;20094;-70
2021/03/04 09:46:40;;;;;;;16.33;9.20;;;;;;;24.56;23.32;99112.00;4985102;28;20405;-70
2021/03/04 09:49:16;;;;;;;15.82;9.38;;;;;;;25.15;23.03;99114.88;4984851;28;20022;-70
2021/03/04 09:51:45;;;;;;;18.38;9.80;;;;;;;25.69;23.58;99111.78;4992752;28;20041;-70
2021/03/04 09:54:11;;;;;;;18.30;10.07;;;;;;;25.38;23.26;99111.41;4980437;28;20487;-70
2021/03/04 09:56:36;;;;;;;15.05;9.20;;;;;;;27.14;21.15;99104.97;4988590;28;20050;-70
2021/03/04 09:59:02;;;;;;;19.92;9.55;;;;;;;23.17;24.48;99119.50;4979956;28;20026;-70
2021/03/04 10:01:33;;;;;;;17.55;9.00;;;;;;;22.89;25.26;99114.28;4989489;28;20023;-70
2021/03/04 10:04:04;;;;;;;15.23;8.80;;;;;;;23.59;23.07;99100.00;4992517;28;20029;-70
2021/03/04 10:06:38;;;;;;;18.13;7.80;;;;;;;24.57;22.55;99090.69;4981269;28;20022;-69
2021/03/04 10:09:06;;;;;;;18.52;8.52;;;;;;;25.32;21.92;99092.41;4984592;28;20081;-70
2021/03/04 10:11:36;;;;;;;17.13;8.33;;;;;;;24.94;22.64;99090.72;4990389;28;20034;-70
2021/03/04 10:14:09;;;;;;;19.90;7.68;;;;;;;25.24;21.38;99087.69;4978215;28;20110;-70
2021/03/04 10:16:35;;;;;;;22.00;9.50;;;;;;;25.95;20.77;99083.25;4988412;28;20061;-70
2021/03/04 10:19:00;;;;;;;15.90;8.57;;;;;;;25.50;21.78;99082.25;4985037;28;20105;-70
2021/03/04 10:21:26;;;;;;;21.08;7.85;;;;;;;24.57;22.45;99081.91;4989296;28;20077;-70
2021/03/04 10:23:51;;;;;;;16.67;7.75;;;;;;;23.85;23.81;99082.41;4987118;28;20113;-69
2021/03/04 10:26:17;;;;;;;20.05;8.88;;;;;;;22.07;25.62;99087.53;4978610;28;20109;-70
2021/03/04 10:28:42;;;;;;;23.30;8.25;;;;;;;20.13;28.38;99085.22;4975641;28;20111;-70
2021/03/04 10:31:08;;;;;;;19.95;8.35;;;;;;;20.60;28.72;99087.16;4979208;28;20027;-70
2021/03/04 10:33:33;;;;;;;30.13;9.52;;;;;;;21.66;27.40;99076.81;4981994;28;20018;-70
2021/03/04 10:35:58;;;;;;;25.42;9.15;;;;;;;20.95;28.67;99079.94;4979061;28;20037;-70
2021/03/04 10:38:24;;;;;;;22.13;9.30;;;;;;;22.36;26.62;99073.53;4989422;28;20025;-70
2021/03/04 10:40:49;;;;;;;22.73;8.68;;;;;;;21.43;27.70;99078.13;4984901;28;20030;-70
2021/03/04 10:43:15;;;;;;;21.38;9.73;;;;;;;19.72;30.40;99077.63;4982762;28;20384;-70
2021/03/04 10:45:41;;;;;;;24.77;9.82;;;;;;;21.40;28.33;99064.28;4982823;28;20061;-70
2021/03/04 10:48:07;;;;;;;25.95;11.18;;;;;;;22.22;27.52;99072.56;4990353;28;20480;-70
2021/03/04 10:50:32;;;;;;;18.42;10.15;;;;;;;23.21;25.84;99067.25;4982242;28;20025;-70
2021/03/04 10:52:57;;;;;;;28.05;9.85;;;;;;;23.10;25.80;99065.31;4984712;28;20042;-70
2021/03/04 10:55:24;;;;;;;27.55;15.02;;;;;;;23.26;25.63;99055.47;4988914;28;20037;-70
2021/03/04 10:57:49;;;;;;;25.55;10.07;;;;;;;23.14;25.66;99065.97;4982786;28;20044;-70
2021/03/04 11:00:15;;;;;;;18.90;9.27;;;;;;;21.96;26.70;99054.81;4987680;28;20101;-70
2021/03/04 11:02:40;;;;;;;24.15;10.38;;;;;;;21.81;27.69;99046.03;4986545;28;20031;-70
2021/03/04 11:05:07;;;;;;;24.35;9.75;;;;;;;23.48;25.22;99043.44;4991579;28;20026;-70
2021/03/04 11:07:33;;;;;;;26.83;11.70;;;;;;;23.04;25.95;99039.28;4994219;28;20026;-70
2021/03/04 11:09:59;;;;;;;25.25;10.30;;;;;;;23.01;26.79;99050.91;4978472;28;20507;-70
2021/03/04 11:12:24;;;;;;;23.80;10.68;;;;;;;24.04;25.04;99041.44;4992885;28;20027;-70
2021/03/04 11:14:49;;;;;;;24.85;12.05;;;;;;;22.26;27.63;99050.34;4979882;28;20026;-70
2021/03/04 11:17:15;;;;;;;30.83;11.68;;;;;;;23.73;26.09;99027.66;4992506;28;20031;-70
2021/03/04 11:19:42;;;;;;;31.95;12.02;;;;;;;23.04;26.69;99034.84;4977912;28;20026;-70
2021/03/04 11:22:07;;;;;;;21.88;11.70;;;;;;;23.59;25.93;99033.00;4961893;28;20023;-70
2021/03/04 11:24:33;;;;;;;27.85;10.75;;;;;;;25.32;24.03;99021.63;4986891;28;20038;-70
2021/03/04 11:26:59;;;;;;;21.13;9.82;;;;;;;24.48;24.46;99024.28;4961703;28;20068;-65
2021/03/04 11:31:52;;;;;;;28.70;10.60;;;;;;;22.55;27.05;99026.56;4982302;28;20057;-69
2021/03/04 11:34:17;;;;;;;25.00;11.23;;;;;;;22.32;26.72;99014.78;4985837;28;20026;-70
2021/03/04 11:36:43;;;;;;;24.52;10.15;;;;;;;23.04;27.04;99010.22;4985655;28;20469;-69
2021/03/04 11:39:08;;;;;;;23.63;10.85;;;;;;;24.45;24.45;98997.97;4986186;28;20033;-69
2021/03/04 11:41:34;;;;;;;25.50;11.63;;;;;;;23.88;25.75;98993.16;4974398;28;20045;-69
2021/03/04 11:43:59;;;;;;;30.55;12.02;;;;;;;23.57;26.41;98989.94;4972014;28;20062;-69
2021/03/04 11:46:25;;;;;;;22.23;10.77;;;;;;;22.55;27.35;98995.69;4972994;28;20153;-69
2021/03/04 11:48:51;;;;;;;29.38;10.35;;;;;;;22.35;28.05;98985.56;4973112;28;20110;-69
2021/03/04 11:51:17;;;;;;;23.63;9.30;;;;;;;22.54;27.34;98985.25;4973076;28;20026;-69
2021/03/04 11:53:43;;;;;;;34.80;11.75;;;;;;;20.52;29.91;98984.03;4972998;28;20086;-69
2021/03/04 11:56:08;;;;;;;25.55;9.30;;;;;;;21.29;29.25;98976.09;4972353;28;20744;-69
2021/03/04 11:58:34;;;;;;;20.52;10.23;;;;;;;21.29;29.12;98968.19;4973237;28;20038;-69
2021/03/04 12:01:00;;;;;;;31.25;10.10;;;;;;;22.02;29.03;98970.00;4968071;28;20049;-69
2021/03/04 12:03:25;;;;;;;26.52;9.73;;;;;;;22.59;27.78;98954.09;4964373;28;20484;-69
2021/03/04 12:05:50;;;;;;;29.13;10.15;;;;;;;21.64;29.18;98954.72;4964612;28;20113;-69
2021/03/04 12:08:17;;;;;;;30.48;10.82;;;;;;;21.87;28.87;98949.84;4977663;28;20027;-69
2021/03/04 12:10:42;;;;;;;22.02;10.30;;;;;;;21.75;28.28;98952.25;4963980;28;20031;-69
2021/03/04 12:13:09;;;;;;;22.48;9.90;;;;;;;20.46;30.47;98939.59;4963421;28;20402;-69
2021/03/04 12:15:34;;;;;;;24.23;9.95;;;;;;;19.59;32.03;98939.84;4958215;28;20701;-69
2021/03/04 12:18:00;;;;;;;27.23;9.30;;;;;;;19.81;31.77;98938.75;4949882;28;21233;-69
2021/03/04 12:20:26;;;;;;;27.25;9.43;;;;;;;16.52;34.98;98945.97;4956165;28;20042;-68
2021/03/04 12:22:52;;;;;;;31.33;9.10;;;;;;;16.50;36.80;98938.19;4953601;28;20034;-69
2021/03/04 12:25:17;;;;;;;22.80;9.45;;;;;;;17.49;36.04;98927.97;4956754;28;20038;-69
2021/03/04 12:27:42;;;;;;;22.58;8.93;;;;;;;17.52;36.25;98935.72;4954124;28;20467;-69
2021/03/04 12:30:09;;;;;;;24.25;8.77;;;;;;;17.34;35.19;98928.66;4951924;28;20839;-69
2021/03/04 12:32:35;;;;;;;23.50;8.25;;;;;;;17.30;34.56;98929.69;4962893;28;20499;-69
2021/03/04 12:35:01;;;;;;;25.85;9.38;;;;;;;17.02;35.44;98924.78;4960019;28;20062;-69
2021/03/04 12:37:26;;;;;;;18.80;8.10;;;;;;;16.45;34.98;98925.28;4960930;28;20988;-69
2021/03/04 12:39:52;;;;;;;23.35;7.00;;;;;;;15.96;35.99;98926.34;4961070;28;20717;-69
2021/03/04 12:42:17;;;;;;;17.98;6.95;;;;;;;16.12;36.43;98922.22;4960242;28;20368;-69
2021/03/04 12:44:43;;;;;;;25.90;6.68;;;;;;;16.57;34.85;98912.63;4958719;28;20074;-69
2021/03/04 12:47:09;;;;;;;18.23;5.85;;;;;;;16.58;35.34;98914.31;4971518;28;20030;-69
2021/03/04 12:49:35;;;;;;;21.58;5.68;;;;;;;16.09;33.10;98919.72;4971691;28;20546;-69
2021/03/04 12:52:00;;;;;;;24.38;5.63;;;;;;;15.94;33.33;98913.31;4969221;28;20046;-69
2021/03/04 12:54:25;;;;;;;28.98;6.75;;;;;;;15.63;33.76;98908.38;4971997;28;20047;-69
2021/03/04 12:56:51;;;;;;;20.98;5.90;;;;;;;15.55;34.09;98899.94;4971911;28;20030;-69
2021/03/04 12:59:16;;;;;;;28.67;8.00;;;;;;;15.07;35.61;98900.75;4961233;28;20685;-69
2021/03/04 13:01:42;;;;;;;25.95;8.13;;;;;;;15.13;36.03;98904.91;4957572;28;20161;-69
2021/03/04 13:04:08;;;;;;;29.65;13.35;;;;;;;15.72;35.75;98896.75;4955314;28;20033;-69
2021/03/04 13:06:34;;;;;;;29.08;11.32;;;;;;;15.70;35.27;98893.31;4945776;28;20037;-69
2021/03/04 13:09:00;;;;;;;24.35;9.27;;;;;;;16.41;33.65;98886.25;4944604;28;21031;-67
2021/03/04 13:11:26;;;;;;;36.00;14.68;;;;;;;16.50;34.00;98880.66;4946226;28;20404;-67
2021/03/04 13:13:51;;;;;;;28.95;7.53;;;;;;;16.50;34.22;98880.66;4936714;28;20475;-67
2021/03/04 13:16:17;;;;;;;38.38;12.20;;;;;;;16.05;33.26;98881.56;4934055;28;20350;-67
2021/03/04 13:18:42;;;;;;;45.70;14.55;;;;;;;15.92;33.73;98882.94;4935015;28;20034;-67
2021/03/04 13:21:07;;;;;;;33.38;13.57;;;;;;;16.02;34.04;98875.59;4932325;28;20380;-67
2021/03/04 13:23:33;;;;;;;36.15;15.85;;;;;;;15.68;35.67;98880.31;4915307;28;20065;-68
2021/03/04 13:25:59;;;;;;;86.70;42.53;;;;;;;16.29;34.74;98871.03;4914056;28;20034;-68
2021/03/04 13:28:25;;;;;;;18.90;9.13;;;;;;;16.06;34.58;98870.19;4926876;28;20030;-68
2021/03/04 13:30:51;;;;;;;21.60;6.03;;;;;;;15.27;35.48;98865.25;4932646;28;20945;-68
2021/03/04 13:33:16;;;;;;;22.73;5.25;;;;;;;15.32;35.99;98865.94;4936585;28;20029;-68
2021/03/04 13:35:41;;;;;;;21.45;6.68;;;;;;;14.86;36.37;98862.34;4945909;28;20046;-68
2021/03/04 13:38:07;;;;;;;24.25;5.40;;;;;;;14.67;35.55;98850.84;4951356;28;20081;-68
2021/03/04 13:40:32;;;;;;;27.23;5.30;;;;;;;15.23;35.55;98845.38;4951137;28;20065;-68
2021/03/04 13:42:58;;;;;;;26.45;6.22;;;;;;;15.46;35.37;98855.84;4953950;28;20403;-68
2021/03/04 13:45:23;;;;;;;20.38;5.75;;;;;;;15.29;36.08;98850.41;4963089;28;20510;-68
2021/03/04 13:47:48;;;;;;;17.33;5.53;;;;;;;15.34;36.00;98854.56;4962149;28;20036;-68
2021/03/04 13:50:14;;;;;;;16.75;4.57;;;;;;;14.97;36.35;98860.22;4962100;28;20054;-68
2021/03/04 13:52:39;;;;;;;17.75;4.53;;;;;;;15.28;36.57;98848.69;4960277;28;20067;-68
2021/03/04 13:55:05;;;;;;;48.50;20.48;;;;;;;15.23;36.16;98845.38;4962862;28;20066;-68
2021/03/04 13:57:31;;;;;;;40.45;17.48;;;;;;;15.60;35.85;98845.75;4961660;28;20034;-67
2021/03/04 13:59:56;;;;;;;19.67;4.93;;;;;;;15.32;36.68;98850.28;4961274;28;21996;-68
2021/03/04 14:02:21;;;;;;;29.40;5.35;;;;;;;14.63;37.06;98845.69;4961731;28;20031;-68
2021/03/04 14:04:47;;;;;;;27.48;4.65;;;;;;;14.97;36.70;98844.56;4961724;28;20648;-68
2021/03/04 14:07:13;;;;;;;16.25;5.43;;;;;;;14.53;36.86;98844.31;4959312;28;20026;-71
2021/03/04 14:09:38;;;;;;;17.45;5.00;;;;;;;14.47;36.63;98844.50;4959554;28;20491;-71
2021/03/04 14:12:04;;;;;;;11.88;4.00;;;;;;;14.61;36.11;98837.09;4960015;28;20038;-72
2021/03/04 14:14:29;;;;;;;20.98;3.78;;;;;;;14.58;36.98;98846.75;4959525;28;20054;-71
2021/03/04 14:16:55;;;;;;;16.02;5.22;;;;;;;14.65;37.42;98843.91;4959128;28;20053;-72
2021/03/04 14:19:21;;;;;;;15.68;4.93;;;;;;;14.53;37.47;98839.09;4959380;28;20030;-72
2021/03/04 14:21:46;;;;;;;13.40;5.15;;;;;;;14.23;37.44;98843.53;4961449;28;20524;-72
2021/03/04 14:24:12;;;;;;;20.20;5.70;;;;;;;14.35;37.61;98844.88;4960654;28;20039;-71
2021/03/04 14:26:38;;;;;;;24.67;5.97;;;;;;;14.39;37.79;98841.25;4961544;28;20035;-72
2021/03/04 14:29:04;;;;;;;33.65;6.05;;;;;;;14.11;37.94;98842.13;4961494;28;21065;-73
2021/03/04 14:31:30;;;;;;;16.27;5.60;;;;;;;14.28;38.05;98838.16;4961566;28;20030;-72
2021/03/04 14:33:55;;;;;;;24.75;5.60;;;;;;;14.00;39.24;98828.59;4965783;28;20035;-73
2021/03/04 14:36:20;;;;;;;18.88;5.30;;;;;;;14.02;38.97;98834.63;4961669;28;20476;-72
2021/03/04 14:38:45;;;;;;;26.23;5.68;;;;;;;13.72;38.23;98838.16;4958248;28;20038;-72
2021/03/04 14:41:11;;;;;;;15.90;4.80;;;;;;;13.78;39.03;98833.63;4956757;28;20026;-72
2021/03/04 14:43:36;;;;;;;16.80;4.78;;;;;;;13.90;39.27;98827.19;4959296;28;20039;-72
2021/03/04 14:46:01;;;;;;;18.75;4.85;;;;;;;13.65;39.35;98831.44;4957792;28;20033;-72
2021/03/04 14:48:27;;;;;;;25.95;4.72;;;;;;;13.49;40.52;98831.88;4958195;28;20081;-72
2021/03/04 14:50:52;;;;;;;20.00;5.40;;;;;;;13.61;41.96;98831.50;4958264;28;20027;-72
2021/03/04 14:53:17;;;;;;;20.52;5.30;;;;;;;13.36;43.85;98833.13;4964688;28;20089;-72
2021/03/04 14:55:43;;;;;;;17.85;5.63;;;;;;;13.60;43.42;98824.59;4967810;28;20031;-72
2021/03/04 14:58:08;;;;;;;26.63;5.35;;;;;;;13.69;41.59;98817.44;4966932;28;20027;-72
2021/03/04 15:00:33;;;;;;;21.13;5.22;;;;;;;13.79;40.56;98819.69;4967887;28;20033;-72
2021/03/04 15:02:59;;;;;;;12.95;5.07;;;;;;;13.69;42.30;98817.44;4966603;28;20041;-72
2021/03/04 15:05:25;;;;;;;23.50;5.03;;;;;;;13.78;41.14;98822.31;4967785;28;20380;-72
2021/03/04 15:07:51;;;;;;;25.58;5.53;;;;;;;13.54;41.42;98824.78;4974051;28;20030;-72
2021/03/04 15:10:17;;;;;;;20.30;5.50;;;;;;;13.53;40.92;98822.22;4973817;28;20526;-72
2021/03/04 15:12:43;;;;;;;20.73;6.43;;;;;;;13.37;40.93;98822.66;4974306;28;20039;-72
2021/03/04 15:15:08;;;;;;;21.00;6.53;;;;;;;13.20;45.00;98818.78;4973371;28;20046;-72
2021/03/04 15:17:36;;;;;;;25.67;5.78;;;;;;;13.28;43.70;98816.88;4973837;28;20058;-72
2021/03/04 15:20:03;;;;;;;25.33;5.50;;;;;;;12.91;43.78;98815.25;4973718;28;20058;-72
2021/03/04 15:22:29;;;;;;;24.75;5.00;;;;;;;13.23;43.11;98818.75;4973834;28;20030;-72
2021/03/04 15:24:54;;;;;;;14.75;4.57;;;;;;;13.23;42.98;98814.38;4973655;28;20081;-72
2021/03/04 15:27:19;;;;;;;13.98;5.47;;;;;;;13.24;41.86;98810.03;4972689;28;20039;-73
2021/03/04 15:29:45;;;;;;;14.10;5.22;;;;;;;13.23;40.92;98811.78;4973042;28;20814;-72
2021/03/04 15:32:10;;;;;;;16.98;5.03;;;;;;;13.30;41.14;98804.69;4972950;28;20026;-72
2021/03/04 15:34:35;;;;;;;19.73;7.15;;;;;;;13.18;42.24;98804.97;4973368;28;20031;-72
2021/03/04 15:37:01;;;;;;;22.38;5.07;;;;;;;12.77;43.08;98801.78;4973105;28;20027;-72
2021/03/04 15:39:26;;;;;;;35.35;5.28;;;;;;;13.05;43.17;98805.34;4973433;28;20042;-72
2021/03/04 15:41:51;;;;;;;21.17;4.93;;;;;;;13.29;43.72;98803.78;4973195;28;20086;-72